| time (UTC) | temp C | wind direction | speed KPH | gust KPH | rain 1hr cm | rain 24hr cm | rain mn cm | humidity % | barometer mb |
| 20260507171835 | 13 | 270 | 11.3 | 0.0 | 0.00 | 0.00 | 0.00 | 62 | |
| 20260507162138 | 16 | 260 | 8.0 | 0.0 | 0.00 | 0.00 | 0.00 | 55 | |
| 20260507152403 | 16 | 260 | 14.5 | 0.0 | 0.00 | 0.00 | 0.00 | 55 | |
| 20260507151834 | 16 | 260 | 14.5 | 0.0 | 0.00 | 0.00 | 0.00 | 55 | |
| 20260507141837 | 17 | 230 | 11.3 | 0.0 | 0.00 | 0.00 | 0.00 | 51 | |
| 20260507131937 | 17 | 250 | 14.5 | 0.0 | 0.00 | 0.00 | 0.00 | 48 | |
| 20260507121835 | 16 | 250 | 11.3 | 0.0 | 0.00 | 0.00 | 0.00 | 55 | |
| 20260507111836 | 16 | 260 | 14.5 | 0.0 | 0.00 | 0.00 | 0.00 | 51 | |
| 20260507102039 | 15 | 260 | 8.0 | 0.0 | 0.00 | 0.00 | 0.00 | 62 | |
| 20260507091835 | 15 | 230 | 11.3 | 0.0 | 0.00 | 0.00 | 0.00 | 62 | |
| 20260507081835 | 13 | 260 | 11.3 | 0.0 | 0.00 | 0.00 | 0.00 | 67 | |
| 20260507071836 | 15 | 230 | 14.5 | 0.0 | 0.00 | 0.00 | 0.00 | 72 | |
| 20260507061835 | 12 | 240 | 11.3 | 0.0 | 0.00 | 0.00 | 0.00 | 82 | |
| 20260507051834 | 12 | 220 | 8.0 | 0.0 | 0.00 | 0.00 | 0.00 | 87 | |
| 20260507042040 | 10 | 200 | 3.2 | 0.0 | 0.00 | 0.00 | 0.00 | 93 | |
| 20260507031836 | 10 | 190 | 3.2 | 0.0 | 0.00 | 0.00 | 0.00 | 93 | |
| 20260507021833 | 11 | 250 | 8.0 | 0.0 | 0.00 | 0.00 | 0.00 | 93 | |
| 20260507011935 | 12 | 230 | 8.0 | 0.0 | 0.00 | 0.00 | 0.00 | 93 | |
| 20260507001835 | 12 | 230 | 8.0 | 0.0 | 0.00 | 0.00 | 0.00 | 93 | |
| 20260506231837 | 12 | 220 | 3.2 | 0.0 | 0.00 | 0.00 | 0.00 | 93 | |
| 20260506222037 | 13 | 110 | 8.0 | 0.0 | 0.00 | 0.00 | 0.00 | 87 | |
| 20260506211835 | 12 | 120 | 8.0 | 0.0 | 0.00 | 0.00 | 0.00 | 93 | |
| 20260506201852 | 15 | 60 | 11.3 | 0.0 | 0.00 | 0.00 | 0.00 | 82 | |
| 20260506191956 | 15 | 310 | 3.2 | 0.0 | 0.00 | 0.00 | 0.00 | 82 | |
| 20260506181924 | 16 | 80 | 8.0 | 0.0 | 0.00 | 0.00 | 0.00 | 77 |